createdAt,value
2022-09-26T00:02:19.111Z,100622.06
2022-09-26T00:04:45.766Z,100613.97
2022-09-26T00:07:12.295Z,100609.78
2022-09-26T00:09:38.845Z,100604.34
2022-09-26T00:12:05.769Z,100599.03
2022-09-26T00:14:32.323Z,100597.22
2022-09-26T00:16:58.982Z,100582.88
2022-09-26T00:19:26.068Z,100583.97
2022-09-26T00:21:52.733Z,100575.81
2022-09-26T00:24:19.315Z,100568.66
2022-09-26T00:26:45.919Z,100569.47
2022-09-26T00:29:13.656Z,100562.16
2022-09-26T00:31:42.472Z,100552.56
2022-09-26T00:34:11.618Z,100553.34
2022-09-26T00:36:39.016Z,100547.13
2022-09-26T00:39:09.636Z,100536.44
2022-09-26T00:41:36.865Z,100526.50
2022-09-26T00:44:03.888Z,100525.81
2022-09-26T00:46:38.209Z,100514.97
2022-09-26T00:49:21.561Z,100508.63
2022-09-26T00:52:10.106Z,100507.03
2022-09-26T00:54:38.920Z,100506.00
2022-09-26T00:57:09.577Z,100491.72
2022-09-26T00:59:39.392Z,100491.91
2022-09-26T01:02:06.208Z,100486.34
2022-09-26T01:04:34.362Z,100470.31
2022-09-26T01:07:02.365Z,100467.63
2022-09-26T01:09:29.336Z,100457.00
2022-09-26T01:11:56.912Z,100462.25
2022-09-26T01:14:24.545Z,100455.22
2022-09-26T01:16:51.347Z,100445.63
2022-09-26T01:19:25.489Z,100447.13
2022-09-26T01:22:18.209Z,100438.41
2022-09-26T01:24:59.645Z,100433.13
2022-09-26T01:27:56.914Z,100432.22
2022-09-26T01:30:27.617Z,100427.84
2022-09-26T01:33:35.006Z,100422.56
2022-09-26T01:36:14.508Z,100420.72
2022-09-26T01:38:55.809Z,100422.56
2022-09-26T01:41:34.129Z,100423.44
2022-09-26T01:44:19.127Z,100423.56
2022-09-26T01:46:55.792Z,100414.72
2022-09-26T01:49:36.099Z,100416.69
2022-09-26T01:52:02.668Z,100408.13
2022-09-26T01:54:36.400Z,100407.47
2022-09-26T01:57:06.030Z,100404.78
2022-09-26T01:59:37.359Z,100398.44
2022-09-26T02:02:11.572Z,100398.38
2022-09-26T02:04:41.466Z,100390.41
2022-09-26T02:07:16.875Z,100388.78
2022-09-26T02:09:59.282Z,100385.16
2022-09-26T02:12:39.554Z,100386.66
2022-09-26T02:15:11.763Z,100381.72
2022-09-26T02:17:42.186Z,100374.59
2022-09-26T02:20:12.228Z,100367.41
2022-09-26T02:22:39.127Z,100361.97
2022-09-26T02:25:06.489Z,100360.94
2022-09-26T02:27:33.074Z,100356.47
2022-09-26T02:29:59.680Z,100344.09
2022-09-26T02:32:29.729Z,100338.72
2022-09-26T02:34:56.895Z,100342.22
2022-09-26T02:37:24.030Z,100323.69
2022-09-26T02:39:51.075Z,100313.84
2022-09-26T02:42:52.678Z,100303.16
2022-09-26T02:45:45.046Z,100293.13
2022-09-26T02:48:35.795Z,100280.78
2022-09-26T02:51:28.352Z,100273.53
2022-09-26T02:54:18.127Z,100264.81
2022-09-26T02:56:47.452Z,100264.59
2022-09-26T02:59:21.627Z,100260.41
2022-09-26T03:01:49.874Z,100253.06
2022-09-26T03:04:22.049Z,100253.22
2022-09-26T03:06:51.528Z,100254.16
2022-09-26T03:09:19.201Z,100244.22
2022-09-26T03:11:46.277Z,100239.22
2022-09-26T03:14:13.879Z,100235.53
2022-09-26T03:16:44.428Z,100226.53
2022-09-26T03:19:17.430Z,100229.34
2022-09-26T03:21:45.265Z,100214.75
2022-09-26T03:24:13.147Z,100210.44
2022-09-26T03:26:40.276Z,100208.72
2022-09-26T03:29:07.204Z,100207.03
2022-09-26T03:31:33.906Z,100207.22
2022-09-26T03:34:00.475Z,100191.25
2022-09-26T03:36:28.009Z,100189.28
2022-09-26T03:38:54.548Z,100184.91
2022-09-26T03:41:21.149Z,100181.78
2022-09-26T03:43:47.708Z,100170.53
2022-09-26T03:46:15.156Z,100168.03
2022-09-26T03:48:42.131Z,100168.09
2022-09-26T03:51:11.134Z,100157.31
2022-09-26T03:53:39.881Z,100151.16
2022-09-26T03:56:11.916Z,100150.00
2022-09-26T03:58:38.973Z,100144.53
2022-09-26T04:01:19.648Z,100146.47
2022-09-26T04:03:50.574Z,100135.53
2022-09-26T04:06:20.213Z,100123.09
2022-09-26T04:08:48.764Z,100118.84
2022-09-26T04:11:19.182Z,100115.19
2022-09-26T04:13:51.917Z,100111.78
2022-09-26T04:16:20.334Z,100098.97
2022-09-26T04:18:47.807Z,100091.19
2022-09-26T04:21:14.511Z,100097.53
2022-09-26T04:23:42.380Z,100082.31
2022-09-26T04:26:11.616Z,100073.53
2022-09-26T04:28:39.752Z,100070.78
2022-09-26T04:31:07.073Z,100070.00
2022-09-26T04:33:33.808Z,100055.59
2022-09-26T04:36:06.634Z,100052.09
2022-09-26T04:38:33.980Z,100051.88
2022-09-26T04:41:06.655Z,100041.06
2022-09-26T04:43:33.421Z,100040.38
2022-09-26T04:46:00.118Z,100033.38
2022-09-26T04:48:27.117Z,100027.13
2022-09-26T04:50:53.659Z,100027.25
2022-09-26T04:53:20.270Z,100023.31
2022-09-26T04:55:48.035Z,100017.22
2022-09-26T04:58:16.386Z,100013.06
2022-09-26T05:00:50.426Z,100000.31
2022-09-26T05:03:17.706Z,100004.75
2022-09-26T05:05:47.388Z,99997.47
2022-09-26T05:08:14.951Z,100005.66
2022-09-26T05:10:42.292Z,99986.66
2022-09-26T05:13:09.648Z,99982.66
2022-09-26T05:15:39.858Z,99964.66
2022-09-26T05:18:11.511Z,99980.63
2022-09-26T05:20:38.831Z,99978.84
2022-09-26T05:23:07.344Z,99966.38
2022-09-26T05:25:59.760Z,99963.69
2022-09-26T05:28:26.673Z,99962.69
2022-09-26T05:30:53.237Z,99954.78
2022-09-26T05:33:20.186Z,99948.75
2022-09-26T05:35:53.413Z,99946.59
2022-09-26T05:38:19.977Z,99943.97
2022-09-26T05:40:58.329Z,99933.44
2022-09-26T05:43:27.393Z,99934.13
2022-09-26T05:46:05.404Z,99925.44
2022-09-26T05:48:33.634Z,99925.66
2022-09-26T05:51:12.557Z,99914.50
2022-09-26T05:53:39.904Z,99921.84
2022-09-26T05:56:07.330Z,99913.72
2022-09-26T05:58:35.993Z,99910.13
2022-09-26T06:01:04.304Z,99917.91
2022-09-26T06:03:34.515Z,99907.59
2022-09-26T06:06:08.373Z,99901.53
2022-09-26T06:08:36.497Z,99904.13
2022-09-26T06:11:15.097Z,99896.88
2022-09-26T06:13:45.951Z,99897.00
2022-09-26T06:16:15.948Z,99894.34
2022-09-26T06:18:42.653Z,99883.69
2022-09-26T06:21:11.198Z,99884.41
2022-09-26T06:23:37.800Z,99879.25
2022-09-26T06:26:08.452Z,99873.69
2022-09-26T06:28:38.970Z,99873.81
2022-09-26T06:31:13.347Z,99875.41
2022-09-26T06:33:39.920Z,99880.72
2022-09-26T06:36:09.040Z,99871.78
2022-09-26T06:38:35.983Z,99879.25
2022-09-26T06:41:03.173Z,99876.34
2022-09-26T06:43:31.297Z,99869.88
2022-09-26T06:45:57.848Z,99857.41
2022-09-26T06:48:27.212Z,99861.13
2022-09-26T06:50:55.061Z,99854.00
2022-09-26T06:53:21.938Z,99852.00
2022-09-26T06:55:48.808Z,99845.91
2022-09-26T06:58:15.394Z,99842.41
2022-09-26T07:00:42.003Z,99843.94
2022-09-26T07:03:08.700Z,99837.91
2022-09-26T07:05:35.366Z,99821.81
2022-09-26T07:08:02.668Z,99817.28
2022-09-26T07:10:30.570Z,99812.88
2022-09-26T07:13:05.052Z,99805.66
2022-09-26T07:15:33.510Z,99796.69
2022-09-26T07:18:02.697Z,99796.69
2022-09-26T07:20:32.199Z,99800.06
2022-09-26T07:23:05.441Z,99790.19
2022-09-26T07:25:33.231Z,99783.97
2022-09-26T07:28:00.142Z,99791.97
2022-09-26T07:30:28.285Z,99787.50
2022-09-26T07:33:00.559Z,99783.75
2022-09-26T07:35:28.589Z,99777.63
2022-09-26T07:37:55.349Z,99779.06
2022-09-26T07:40:22.724Z,99776.63
2022-09-26T07:43:04.273Z,99767.66
2022-09-26T07:46:10.892Z,99760.53
2022-09-26T07:48:55.947Z,99769.41
2022-09-26T07:51:23.241Z,99760.44
2022-09-26T07:53:49.788Z,99752.56
2022-09-26T07:56:16.838Z,99746.22
2022-09-26T07:58:43.799Z,99744.47
2022-09-26T08:01:14.749Z,99742.59
2022-09-26T08:03:42.245Z,99747.13
2022-09-26T08:06:10.121Z,99742.59
2022-09-26T08:08:36.975Z,99731.97
2022-09-26T08:11:05.545Z,99724.75
2022-09-26T08:13:33.113Z,99722.38
2022-09-26T09:02:27.452Z,99704.25
2022-09-26T09:05:06.326Z,99685.94
2022-09-26T09:07:32.913Z,99692.13
2022-09-26T09:10:07.167Z,99686.59
2022-09-26T09:12:58.664Z,99689.22
2022-09-26T09:15:43.220Z,99688.91
2022-09-26T09:18:29.249Z,99675.69
2022-09-26T09:21:05.663Z,99677.44
2022-09-26T09:23:55.808Z,99673.72
2022-09-26T09:29:40.317Z,99661.25
2022-09-26T09:32:09.784Z,99651.44
2022-09-26T09:34:41.648Z,99655.06
2022-09-26T09:37:16.265Z,99653.94
2022-09-26T09:39:45.746Z,99649.53
2022-09-26T09:42:33.625Z,99658.44
2022-09-26T09:45:06.445Z,99634.47
2022-09-26T09:47:38.060Z,99637.97
2022-09-26T09:50:44.202Z,99637.72
2022-09-26T09:53:28.908Z,99629.75
2022-09-26T09:56:02.581Z,99630.59
2022-09-26T09:58:41.433Z,99625.38
2022-09-26T10:01:46.401Z,99622.53
2022-09-26T10:04:24.012Z,99619.13
2022-09-26T10:06:51.508Z,99620.88
2022-09-26T10:09:36.473Z,99608.91
2022-09-26T10:12:21.435Z,99610.91
2022-09-26T10:15:00.284Z,99609.97
2022-09-26T10:17:29.544Z,99610.81
2022-09-26T10:19:56.308Z,99602.84
2022-09-26T10:22:37.587Z,99602.69
2022-09-26T10:25:09.186Z,99609.22
2022-09-26T10:27:40.604Z,99609.06
2022-09-26T10:30:19.055Z,99596.50
2022-09-26T10:32:48.586Z,99596.81
2022-09-26T10:35:19.964Z,99590.22
2022-09-26T10:37:55.602Z,99597.56
2022-09-26T10:40:51.156Z,99597.47
2022-09-26T10:43:37.936Z,99601.06
2022-09-26T10:46:13.433Z,99588.00
2022-09-26T10:48:49.702Z,99600.69
2022-09-26T10:51:27.209Z,99595.56
2022-09-26T10:54:03.935Z,99595.72
2022-09-26T10:56:35.825Z,99599.44
2022-09-26T10:59:09.893Z,99601.94
2022-09-26T11:01:44.095Z,99590.59
2022-09-26T11:04:14.953Z,99593.97
2022-09-26T11:06:45.494Z,99585.09
2022-09-26T11:09:18.615Z,99582.50
2022-09-26T11:11:47.167Z,99573.63
2022-09-26T11:14:27.888Z,99574.44
2022-09-26T11:16:56.658Z,99574.38
2022-09-26T11:19:45.934Z,99550.91
2022-09-26T11:22:37.300Z,99554.56
2022-09-26T11:25:11.909Z,99554.56
2022-09-26T11:28:07.104Z,99551.16
2022-09-26T11:30:37.830Z,99557.53
2022-09-26T11:33:11.911Z,99544.19
2022-09-26T11:35:55.368Z,99541.53
2022-09-26T11:38:41.594Z,99543.19
2022-09-26T11:41:38.470Z,99545.81
2022-09-26T11:44:19.282Z,99533.53
2022-09-26T11:46:48.659Z,99539.88
2022-09-26T11:49:33.290Z,99537.09
2022-09-26T11:52:03.236Z,99536.34
2022-09-26T11:54:47.820Z,99528.19
2022-09-26T11:57:28.911Z,99532.72
2022-09-26T11:59:58.495Z,99525.50
2022-09-26T12:03:03.646Z,99514.81
2022-09-26T12:05:52.267Z,99515.63
2022-09-26T12:08:47.622Z,99506.66
2022-09-26T12:11:26.525Z,99510.38
2022-09-26T12:14:00.311Z,99506.16
2022-09-26T12:17:06.101Z,99505.03
2022-09-26T12:20:14.067Z,99503.16
2022-09-26T12:23:03.846Z,99499.91
2022-09-26T12:25:38.790Z,99498.06
2022-09-26T12:28:47.138Z,99499.06
2022-09-26T12:31:35.184Z,99497.69
2022-09-26T12:34:29.838Z,99492.44
2022-09-26T12:37:18.633Z,99489.09
2022-09-26T12:40:16.801Z,99488.94
2022-09-26T12:43:07.819Z,99487.06
2022-09-26T12:46:01.204Z,99490.84
2022-09-26T12:48:29.756Z,99478.22
2022-09-26T12:51:33.441Z,99479.84
2022-09-26T12:54:24.215Z,99477.25
2022-09-26T12:57:28.767Z,99470.88
2022-09-26T13:00:10.877Z,99466.31
2022-09-26T13:03:14.744Z,99468.88
2022-09-26T13:05:46.947Z,99471.13
2022-09-26T13:08:46.135Z,99468.13
2022-09-26T13:11:32.272Z,99462.94
2022-09-26T13:14:09.741Z,99463.88
2022-09-26T13:17:05.927Z,99461.19
2022-09-26T13:19:48.241Z,99469.25
2022-09-26T13:22:27.605Z,99456.78
2022-09-26T13:24:59.448Z,99456.78
2022-09-26T13:27:29.991Z,99457.91
2022-09-26T13:30:11.766Z,99447.78
2022-09-26T13:32:47.686Z,99449.69
2022-09-26T13:35:27.242Z,99455.06
2022-09-26T13:38:18.123Z,99454.56
2022-09-26T13:40:53.215Z,99444.59
2022-09-26T13:43:29.449Z,99454.41
2022-09-26T13:46:33.308Z,99437.47
2022-09-26T13:49:25.092Z,99440.81
2022-09-26T13:52:03.048Z,99435.72
2022-09-26T13:54:45.546Z,99445.38
2022-09-26T13:57:39.693Z,99440.94
2022-09-26T14:00:35.552Z,99437.28
2022-09-26T14:03:09.428Z,99434.66
2022-09-26T14:05:45.711Z,99437.06
2022-09-26T14:08:42.880Z,99421.13
2022-09-26T14:11:27.757Z,99429.03
2022-09-26T14:14:16.915Z,99425.34
2022-09-26T14:16:50.019Z,99419.25
2022-09-26T14:19:41.299Z,99412.16
2022-09-26T14:22:16.726Z,99418.38
2022-09-26T14:24:43.550Z,99407.66
2022-09-26T14:27:10.029Z,99412.16
2022-09-26T14:29:36.603Z,99402.91
2022-09-26T14:32:05.350Z,99398.59
2022-09-26T14:34:41.990Z,99402.91
2022-09-26T14:37:41.368Z,99398.22
2022-09-26T14:40:08.029Z,99391.19
2022-09-26T14:42:43.333Z,99387.44
2022-09-26T14:45:26.141Z,99385.75
2022-09-26T14:48:11.382Z,99384.91
2022-09-26T14:50:46.748Z,99394.88
2022-09-26T14:53:18.876Z,99377.69
2022-09-26T14:56:06.274Z,99377.81
2022-09-26T14:58:39.057Z,99365.22
2022-09-26T15:01:23.274Z,99377.81
2022-09-26T15:03:54.030Z,99378.78
2022-09-26T15:06:21.853Z,99381.59
2022-09-26T15:08:48.463Z,99384.06
2022-09-26T15:11:26.528Z,99377.03
2022-09-26T15:13:55.339Z,99365.63
2022-09-26T15:16:27.858Z,99367.25
2022-09-26T15:19:10.656Z,99372.63
2022-09-26T15:21:40.605Z,99371.88
2022-09-26T15:24:33.518Z,99384.28
2022-09-26T15:27:07.186Z,99376.09
2022-09-26T15:29:42.341Z,99377.81
2022-09-26T15:32:15.593Z,99375.22
2022-09-26T15:34:42.899Z,99368.06
2022-09-26T15:37:17.125Z,99375.97
2022-09-26T15:39:43.806Z,99370.75
2022-09-26T15:42:39.581Z,99376.59
2022-09-26T15:45:25.634Z,99387.78
2022-09-26T15:47:52.236Z,99381.41
2022-09-26T15:50:34.566Z,99370.31
2022-09-26T15:53:18.285Z,99378.28
2022-09-26T15:56:10.747Z,99376.03
2022-09-26T15:58:39.977Z,99374.75
2022-09-26T16:01:14.731Z,99379.31
2022-09-26T16:03:55.138Z,99382.06
2022-09-26T16:06:46.876Z,99380.28
2022-09-26T16:09:38.164Z,99386.69
2022-09-26T16:12:11.601Z,99388.44
2022-09-26T16:14:50.283Z,99399.97
2022-09-26T16:17:24.738Z,99392.78
2022-09-26T16:19:52.663Z,99395.38
2022-09-26T16:22:26.574Z,99385.81
2022-09-26T16:24:53.111Z,99381.31
2022-09-26T16:27:25.004Z,99381.88
2022-09-26T16:29:52.379Z,99390.19
2022-09-26T16:32:20.958Z,99395.38
2022-09-26T16:34:48.965Z,99390.19
2022-09-26T16:37:25.377Z,99387.31
2022-09-26T16:39:59.600Z,99384.75
2022-09-26T16:42:31.217Z,99382.81
2022-09-26T16:44:59.092Z,99376.97
2022-09-26T16:47:31.473Z,99382.53
2022-09-26T16:50:19.621Z,99381.06
2022-09-26T16:52:46.204Z,99382.13
2022-09-26T16:55:13.146Z,99379.44
2022-09-26T16:57:57.602Z,99373.94
2022-09-26T17:00:48.773Z,99376.88
2022-09-26T17:03:26.286Z,99381.13
2022-09-26T17:05:55.625Z,99377.31
2022-09-26T17:08:23.044Z,99370.31
2022-09-26T17:10:49.618Z,99385.34
2022-09-26T17:13:22.735Z,99381.66
2022-09-26T17:16:01.176Z,99391.78
2022-09-26T17:18:29.357Z,99397.56
2022-09-26T17:20:56.687Z,99397.41
2022-09-26T17:23:39.354Z,99393.78
2022-09-26T17:26:07.779Z,99402.66
2022-09-26T17:28:40.045Z,99397.13
2022-09-26T17:31:07.965Z,99399.16
2022-09-26T17:33:40.629Z,99401.56
2022-09-26T17:36:10.881Z,99405.25
2022-09-26T17:38:40.329Z,99395.28
2022-09-26T17:41:06.953Z,99407.13
2022-09-26T17:43:34.041Z,99398.88
2022-09-26T17:46:00.970Z,99393.41
2022-09-26T17:48:28.946Z,99407.31
2022-09-26T17:50:56.168Z,99404.44
2022-09-26T17:53:23.644Z,99409.88
2022-09-26T17:55:52.011Z,99403.69
2022-09-26T17:58:19.199Z,99407.09
2022-09-26T18:00:49.256Z,99402.78
2022-09-26T18:03:28.019Z,99406.00
2022-09-26T18:05:54.673Z,99399.03
2022-09-26T18:08:24.626Z,99391.03
2022-09-26T18:11:01.239Z,99393.91
2022-09-26T18:13:33.954Z,99399.03
2022-09-26T18:16:01.211Z,99398.88
2022-09-26T18:18:30.771Z,99400.09
2022-09-26T18:20:58.895Z,99403.44
2022-09-26T18:23:27.861Z,99406.13
2022-09-26T18:25:59.602Z,99402.66
2022-09-26T18:28:26.184Z,99402.78
2022-09-26T18:30:58.005Z,99406.19
2022-09-26T18:33:27.847Z,99413.38
2022-09-26T18:35:55.209Z,99406.13
2022-09-26T18:38:22.302Z,99407.09
2022-09-26T18:40:52.237Z,99406.19
2022-09-26T18:43:23.790Z,99402.38
2022-09-26T18:45:51.092Z,99400.63
2022-09-26T18:48:24.073Z,99403.25
2022-09-26T18:50:51.209Z,99407.00
2022-09-26T18:53:20.334Z,99401.72
2022-09-26T18:56:05.583Z,99400.63
2022-09-26T18:58:32.490Z,99402.66
2022-09-26T19:01:02.054Z,99396.47
2022-09-26T19:03:31.007Z,99392.03
2022-09-26T19:06:04.100Z,99391.78
2022-09-26T19:08:36.405Z,99403.69
2022-09-26T19:11:13.146Z,99410.69
2022-09-26T19:13:44.689Z,99408.28
2022-09-26T19:16:11.351Z,99422.34
2022-09-26T19:18:38.664Z,99422.91
2022-09-26T19:21:10.407Z,99422.34
2022-09-26T19:23:37.153Z,99425.09
2022-09-26T19:26:05.317Z,99427.72
2022-09-26T19:28:34.611Z,99429.47
2022-09-26T19:31:01.964Z,99425.03
2022-09-26T19:33:28.764Z,99413.38
2022-09-26T19:35:55.401Z,99409.03
2022-09-26T19:38:24.716Z,99413.22
2022-09-26T19:40:53.339Z,99416.84
2022-09-26T19:43:21.327Z,99402.03
2022-09-26T19:45:52.896Z,99403.03
2022-09-26T19:48:21.455Z,99409.75
2022-09-26T19:50:48.542Z,99397.66
2022-09-26T19:53:20.095Z,99408.41
2022-09-26T19:55:50.230Z,99408.66
2022-09-26T19:58:25.006Z,99402.19
2022-09-26T20:00:53.785Z,99394.06
2022-09-26T20:03:23.356Z,99401.16
2022-09-26T20:05:50.051Z,99392.31
2022-09-26T20:08:19.557Z,99398.50
2022-09-26T20:10:46.457Z,99401.16
2022-09-26T20:13:13.015Z,99402.78
2022-09-26T20:15:39.711Z,99401.16
2022-09-26T20:18:07.554Z,99402.03
2022-09-26T20:20:35.604Z,99399.28
2022-09-26T20:23:02.461Z,99403.16
2022-09-26T20:25:30.946Z,99395.09
2022-09-26T20:27:58.266Z,99405.06
2022-09-26T20:31:00.460Z,99397.94
2022-09-26T20:33:27.063Z,99398.19
2022-09-26T20:36:02.640Z,99392.56
2022-09-26T20:38:34.283Z,99399.94
2022-09-26T20:41:10.577Z,99402.47
2022-09-26T20:43:39.573Z,99395.06
2022-09-26T20:46:07.687Z,99393.25
2022-09-26T20:48:35.494Z,99383.88
2022-09-26T20:51:03.016Z,99389.81
2022-09-26T20:53:29.559Z,99387.47
2022-09-26T20:57:08.378Z,99384.13
2022-09-26T20:59:36.180Z,99384.72
2022-09-26T21:02:26.377Z,99389.09
2022-09-26T21:04:53.061Z,99387.75
2022-09-26T21:07:19.718Z,99388.97
2022-09-26T21:09:46.297Z,99389.34
2022-09-26T21:12:13.482Z,99394.97
2022-09-26T21:14:40.253Z,99386.94
2022-09-26T21:17:27.303Z,99380.56
2022-09-26T21:19:54.696Z,99384.50
2022-09-26T21:22:24.139Z,99383.38
2022-09-26T21:24:51.079Z,99384.31
2022-09-26T21:27:17.681Z,99380.63
2022-09-26T21:29:44.265Z,99381.81
2022-09-26T21:32:17.233Z,99383.44
2022-09-26T21:34:52.313Z,99386.50
2022-09-26T21:37:18.872Z,99388.78
2022-09-26T21:39:45.901Z,99389.72
2022-09-26T21:42:12.522Z,99389.59
2022-09-26T21:44:42.254Z,99383.69
2022-09-26T21:47:08.798Z,99383.69
2022-09-26T21:49:35.392Z,99388.00
2022-09-26T21:52:09.640Z,99383.28
2022-09-26T21:54:39.379Z,99385.13
2022-09-26T21:57:09.479Z,99384.63
2022-09-26T21:59:37.401Z,99384.84
2022-09-26T22:02:04.290Z,99386.88
2022-09-26T22:04:30.875Z,99384.75
2022-09-26T22:06:57.449Z,99385.94
2022-09-26T22:09:23.983Z,99377.91
2022-09-26T22:11:50.524Z,99377.41
2022-09-26T22:14:17.114Z,99376.06
2022-09-26T22:16:43.688Z,99381.53
2022-09-26T22:19:10.403Z,99379.53
2022-09-26T22:21:37.093Z,99384.09
2022-09-26T22:24:03.945Z,99379.84
2022-09-26T22:26:30.483Z,99386.78
2022-09-26T22:28:57.040Z,99385.03
2022-09-26T22:31:23.742Z,99379.03
2022-09-26T22:33:50.324Z,99376.41
2022-09-26T22:36:16.904Z,99379.78
2022-09-26T22:38:43.445Z,99379.78
2022-09-26T22:41:10.807Z,99383.38
2022-09-26T22:43:37.420Z,99376.28
2022-09-26T22:46:11.612Z,99377.09
2022-09-26T22:48:40.430Z,99376.34
2022-09-26T22:51:07.533Z,99374.94
2022-09-26T22:53:36.026Z,99372.91
2022-09-26T22:56:06.856Z,99374.94
2022-09-26T22:58:36.724Z,99373.19
2022-09-26T23:01:05.104Z,99379.09
2022-09-26T23:03:33.056Z,99373.06
2022-09-26T23:06:00.188Z,99378.44
2022-09-26T23:08:26.924Z,99368.72
2022-09-26T23:10:55.441Z,99381.88
2022-09-26T23:13:26.501Z,99377.34
2022-09-26T23:15:53.413Z,99376.59
2022-09-26T23:18:20.233Z,99376.78
2022-09-26T23:20:47.201Z,99376.84
2022-09-26T23:23:14.477Z,99358.84
2022-09-26T23:25:49.462Z,99363.47
2022-09-26T23:28:17.018Z,99369.78
2022-09-26T23:30:44.106Z,99386.50
2022-09-26T23:33:10.706Z,99372.34
2022-09-26T23:35:37.460Z,99366.06
2022-09-26T23:38:05.400Z,99368.19
2022-09-26T23:40:32.386Z,99361.75
2022-09-26T23:42:59.196Z,99364.44
2022-09-26T23:45:26.863Z,99366.06
2022-09-26T23:47:53.480Z,99361.75
2022-09-26T23:50:20.277Z,99371.53
2022-09-26T23:52:46.867Z,99370.16
2022-09-26T23:55:13.980Z,99375.41
2022-09-26T23:57:40.834Z,99380.63
